createdAt,value
2019-03-29T00:00:33.515Z,7.20
2019-03-29T00:01:37.782Z,7.23
2019-03-29T00:02:42.959Z,7.25
2019-03-29T00:03:46.317Z,7.28
2019-03-29T00:04:53.580Z,7.31
2019-03-29T00:05:56.836Z,7.34
2019-03-29T00:07:01.197Z,7.37
2019-03-29T00:08:05.345Z,7.40
2019-03-29T00:09:09.647Z,7.41
2019-03-29T00:10:13.943Z,7.43
2019-03-29T00:11:18.306Z,7.45
2019-03-29T00:12:25.503Z,7.47
2019-03-29T00:13:28.831Z,7.48
2019-03-29T00:14:33.018Z,7.49
2019-03-29T00:15:37.267Z,7.50
2019-03-29T00:16:41.569Z,7.51
2019-03-29T00:17:46.773Z,7.51
2019-03-29T00:18:50.566Z,7.51
2019-03-29T00:19:54.857Z,7.51
2019-03-29T00:20:59.149Z,7.49
2019-03-29T00:22:03.298Z,7.47
2019-03-29T00:23:08.551Z,7.44
2019-03-29T00:24:12.443Z,7.41
2019-03-29T00:25:17.561Z,7.40
2019-03-29T00:26:22.411Z,7.41
2019-03-29T00:27:26.202Z,7.43
2019-03-29T00:28:30.512Z,7.45
2019-03-29T00:29:34.833Z,7.47
2019-03-29T00:30:39.143Z,7.49
2019-03-29T00:31:43.487Z,7.51
2019-03-29T00:32:47.756Z,7.52
2019-03-29T00:33:51.869Z,7.54
2019-03-29T00:34:56.101Z,7.55
2019-03-29T00:36:00.422Z,7.54
2019-03-29T00:37:04.675Z,7.53
2019-03-29T00:38:08.907Z,7.50
2019-03-29T00:39:13.184Z,7.46
2019-03-29T00:40:17.344Z,7.41
2019-03-29T00:41:21.624Z,7.35
2019-03-29T00:42:25.783Z,7.27
2019-03-29T00:43:29.987Z,7.20
2019-03-29T00:44:34.091Z,7.13
2019-03-29T00:45:38.337Z,7.08
2019-03-29T00:46:42.762Z,7.02
2019-03-29T00:47:47.049Z,7.00
2019-03-29T00:48:51.243Z,6.97
2019-03-29T00:49:55.485Z,6.95
2019-03-29T00:50:59.698Z,6.93
2019-03-29T00:52:03.953Z,6.94
2019-03-29T00:53:09.025Z,6.97
2019-03-29T00:54:12.369Z,7.01
2019-03-29T00:55:16.675Z,7.06
2019-03-29T00:56:20.848Z,7.10
2019-03-29T00:57:25.239Z,7.12
2019-03-29T00:58:29.330Z,7.12
2019-03-29T00:59:33.667Z,7.11
2019-03-29T01:00:37.869Z,7.08
2019-03-29T01:01:42.156Z,7.03
2019-03-29T01:02:46.274Z,6.98
2019-03-29T01:03:50.487Z,6.91
2019-03-29T01:04:55.010Z,6.83
2019-03-29T01:05:58.898Z,6.75
2019-03-29T01:07:03.130Z,6.68
2019-03-29T01:08:09.422Z,6.62
2019-03-29T01:09:11.602Z,6.57
2019-03-29T01:10:15.842Z,6.54
2019-03-29T01:11:20.102Z,6.51
2019-03-29T01:12:24.316Z,6.51
2019-03-29T01:13:28.552Z,6.52
2019-03-29T01:14:32.777Z,6.53
2019-03-29T01:15:37.001Z,6.54
2019-03-29T01:16:41.303Z,6.54
2019-03-29T01:17:45.880Z,6.52
2019-03-29T01:18:49.762Z,6.50
2019-03-29T01:19:53.930Z,6.50
2019-03-29T01:20:58.182Z,6.50
2019-03-29T01:22:02.424Z,6.50
2019-03-29T01:23:06.712Z,6.50
2019-03-29T01:24:10.933Z,6.50
2019-03-29T01:25:15.167Z,6.52
2019-03-29T01:26:19.350Z,6.53
2019-03-29T01:27:23.634Z,6.53
2019-03-29T01:28:27.913Z,6.53
2019-03-29T01:29:32.027Z,6.54
2019-03-29T01:30:36.291Z,6.55
2019-03-29T01:31:40.973Z,6.57
2019-03-29T01:32:44.834Z,6.58
2019-03-29T01:33:49.159Z,6.60
2019-03-29T01:34:53.239Z,6.61
2019-03-29T01:35:57.639Z,6.63
2019-03-29T01:37:01.856Z,6.64
2019-03-29T01:38:06.082Z,6.65
2019-03-29T01:39:10.323Z,6.67
2019-03-29T01:40:14.666Z,6.67
2019-03-29T01:41:18.961Z,6.67
2019-03-29T01:42:23.067Z,6.67
2019-03-29T01:43:27.428Z,6.65
2019-03-29T01:44:31.489Z,6.64
2019-03-29T01:45:35.783Z,6.63
2019-03-29T01:46:39.899Z,6.64
2019-03-29T01:47:44.236Z,6.66
2019-03-29T01:48:49.116Z,6.67
2019-03-29T01:49:52.656Z,6.68
2019-03-29T01:50:56.902Z,6.68
2019-03-29T01:52:01.156Z,6.69
2019-03-29T01:53:05.504Z,6.69
2019-03-29T01:54:09.706Z,6.70
2019-03-29T01:55:13.949Z,6.70
2019-03-29T01:56:18.215Z,6.70
2019-03-29T01:57:22.463Z,6.70
2019-03-29T01:58:26.661Z,6.71
2019-03-29T01:59:30.992Z,6.71
2019-03-29T02:00:36.036Z,6.73
2019-03-29T02:01:39.395Z,6.74
2019-03-29T02:02:43.726Z,6.74
2019-03-29T02:03:47.791Z,6.75
2019-03-29T02:04:52.073Z,6.74
2019-03-29T02:05:56.258Z,6.69
2019-03-29T02:07:00.542Z,6.66
2019-03-29T02:08:05.040Z,6.61
2019-03-29T02:09:08.984Z,6.54
2019-03-29T02:10:13.202Z,6.47
2019-03-29T02:11:17.483Z,6.39
2019-03-29T02:12:21.696Z,6.31
2019-03-29T02:13:26.345Z,6.23
2019-03-29T02:14:29.995Z,6.15
2019-03-29T02:15:34.129Z,6.08
2019-03-29T02:16:38.570Z,6.03
2019-03-29T02:17:42.766Z,5.99
2019-03-29T02:18:46.941Z,5.96
2019-03-29T02:19:51.164Z,5.96
2019-03-29T02:20:55.412Z,5.97
2019-03-29T02:21:59.628Z,6.00
2019-03-29T02:23:04.352Z,6.03
2019-03-29T02:24:08.024Z,6.07
2019-03-29T02:25:12.334Z,6.11
2019-03-29T02:26:16.528Z,6.15
2019-03-29T02:27:20.800Z,6.20
2019-03-29T02:28:25.018Z,6.23
2019-03-29T02:29:29.257Z,6.27
2019-03-29T02:30:33.498Z,6.31
2019-03-29T02:31:41.781Z,6.34
2019-03-29T02:32:41.994Z,6.37
2019-03-29T02:33:46.030Z,6.40
2019-03-29T02:34:50.325Z,6.45
2019-03-29T02:35:54.539Z,6.48
2019-03-29T02:36:58.691Z,6.51
2019-03-29T02:38:03.006Z,6.54
2019-03-29T02:39:07.259Z,6.56
2019-03-29T02:40:11.401Z,6.58
2019-03-29T02:41:15.667Z,6.60
2019-03-29T02:42:19.812Z,6.61
2019-03-29T02:43:24.007Z,6.63
2019-03-29T02:44:28.265Z,6.63
2019-03-29T02:45:32.529Z,6.63
2019-03-29T02:46:36.799Z,6.64
2019-03-29T02:47:41.092Z,6.65
2019-03-29T02:48:45.344Z,6.66
2019-03-29T02:49:49.572Z,6.68
2019-03-29T02:50:53.733Z,6.68
2019-03-29T02:51:58.013Z,6.69
2019-03-29T02:53:02.241Z,6.69
2019-03-29T02:54:06.499Z,6.70
2019-03-29T02:55:10.777Z,6.72
2019-03-29T02:56:15.018Z,6.74
2019-03-29T02:57:19.245Z,6.76
2019-03-29T02:58:23.387Z,6.75
2019-03-29T02:59:27.475Z,6.76
2019-03-29T03:00:31.833Z,6.77
2019-03-29T03:01:36.092Z,6.77
2019-03-29T03:02:40.325Z,6.77
2019-03-29T03:03:44.562Z,6.78
2019-03-29T03:04:48.783Z,6.80
2019-03-29T03:05:52.950Z,6.84
2019-03-29T03:06:57.209Z,6.84
2019-03-29T03:08:01.390Z,6.85
2019-03-29T03:09:14.012Z,6.88
2019-03-29T03:10:09.956Z,6.88
2019-03-29T03:11:14.206Z,6.87
2019-03-29T03:12:18.351Z,6.89
2019-03-29T03:13:22.667Z,6.91
2019-03-29T03:14:26.856Z,6.91
2019-03-29T03:15:31.224Z,6.89
2019-03-29T03:16:35.328Z,6.89
2019-03-29T03:17:39.524Z,6.88
2019-03-29T03:18:43.992Z,6.86
2019-03-29T03:19:48.156Z,6.86
2019-03-29T03:20:52.158Z,6.88
2019-03-29T03:21:56.495Z,6.90
2019-03-29T03:23:00.755Z,6.90
2019-03-29T03:24:05.097Z,6.90
2019-03-29T03:25:09.267Z,6.87
2019-03-29T03:26:13.518Z,6.83
2019-03-29T03:27:17.891Z,6.77
2019-03-29T03:28:21.966Z,6.73
2019-03-29T03:29:26.271Z,6.71
2019-03-29T03:30:30.439Z,6.70
2019-03-29T03:31:34.759Z,6.69
2019-03-29T03:32:39.065Z,6.70
2019-03-29T03:33:43.258Z,6.73
2019-03-29T03:34:47.511Z,6.74
2019-03-29T03:35:51.711Z,6.78
2019-03-29T03:36:56.023Z,6.81
2019-03-29T03:38:00.112Z,6.84
2019-03-29T03:39:04.364Z,6.86
2019-03-29T03:40:08.565Z,6.85
2019-03-29T03:41:12.747Z,6.84
2019-03-29T03:42:17.060Z,6.82
2019-03-29T03:43:21.315Z,6.81
2019-03-29T03:44:25.490Z,6.80
2019-03-29T03:45:29.744Z,6.82
2019-03-29T03:46:34.024Z,6.85
2019-03-29T03:47:38.259Z,6.89
2019-03-29T03:48:42.538Z,6.93
2019-03-29T03:49:46.717Z,6.97
2019-03-29T03:50:51.023Z,7.01
2019-03-29T03:51:55.287Z,7.05
2019-03-29T03:52:59.505Z,7.09
2019-03-29T03:54:03.722Z,7.12
2019-03-29T03:55:07.991Z,7.14
2019-03-29T03:56:12.105Z,7.16
2019-03-29T03:57:16.326Z,7.18
2019-03-29T03:58:20.609Z,7.19
2019-03-29T03:59:24.790Z,7.21
2019-03-29T04:00:29.052Z,7.24
2019-03-29T04:01:33.327Z,7.25
2019-03-29T04:02:37.448Z,7.28
2019-03-29T04:03:41.734Z,7.30
2019-03-29T04:04:45.978Z,7.31
2019-03-29T04:05:50.225Z,7.34
2019-03-29T04:06:54.466Z,7.37
2019-03-29T04:07:58.729Z,7.40
2019-03-29T04:09:02.999Z,7.44
2019-03-29T04:10:07.268Z,7.47
2019-03-29T04:11:11.540Z,7.50
2019-03-29T04:12:15.636Z,7.53
2019-03-29T04:13:19.865Z,7.56
2019-03-29T04:14:24.174Z,7.60
2019-03-29T04:15:28.353Z,7.63
2019-03-29T04:16:32.626Z,7.66
2019-03-29T04:17:36.902Z,7.67
2019-03-29T04:18:41.151Z,7.66
2019-03-29T04:19:45.391Z,7.65
2019-03-29T04:20:49.553Z,7.64
2019-03-29T04:21:53.747Z,7.65
2019-03-29T04:22:57.971Z,7.65
2019-03-29T04:24:02.142Z,7.64
2019-03-29T04:25:06.450Z,7.65
2019-03-29T04:26:10.596Z,7.66
2019-03-29T04:27:14.940Z,7.67
2019-03-29T04:28:19.165Z,7.70
2019-03-29T04:29:23.434Z,7.73
2019-03-29T04:30:27.605Z,7.77
2019-03-29T04:31:31.874Z,7.80
2019-03-29T04:32:36.040Z,7.83
2019-03-29T04:33:40.195Z,7.86
2019-03-29T04:34:44.545Z,7.88
2019-03-29T04:35:48.840Z,7.91
2019-03-29T04:36:53.027Z,7.93
2019-03-29T04:37:57.290Z,7.95
2019-03-29T04:39:01.464Z,7.97
2019-03-29T04:40:08.539Z,7.98
2019-03-29T04:41:10.010Z,8.00
2019-03-29T04:42:14.180Z,8.00
2019-03-29T04:43:18.389Z,8.00
2019-03-29T04:44:22.732Z,8.02
2019-03-29T04:45:27.011Z,8.03
2019-03-29T04:46:31.257Z,8.04
2019-03-29T04:47:35.491Z,8.05
2019-03-29T04:48:39.747Z,8.07
2019-03-29T04:49:43.929Z,8.08
2019-03-29T04:50:48.245Z,8.09
2019-03-29T04:51:52.516Z,8.10
2019-03-29T04:52:56.850Z,8.11
2019-03-29T04:54:01.073Z,8.12
2019-03-29T04:55:05.291Z,8.13
2019-03-29T04:56:09.621Z,8.15
2019-03-29T04:57:13.784Z,8.17
2019-03-29T04:58:17.966Z,8.18
2019-03-29T04:59:22.290Z,8.19
2019-03-29T05:00:26.457Z,8.21
2019-03-29T05:01:30.799Z,8.23
2019-03-29T05:02:35.130Z,8.24
2019-03-29T05:03:39.351Z,8.25
2019-03-29T05:04:43.667Z,8.27
2019-03-29T05:05:47.766Z,8.28
2019-03-29T05:06:52.166Z,8.29
2019-03-29T05:07:56.396Z,8.30
2019-03-29T05:09:00.651Z,8.32
2019-03-29T05:10:04.908Z,8.33
2019-03-29T05:11:09.226Z,8.35
2019-03-29T05:12:13.346Z,8.37
2019-03-29T05:13:17.670Z,8.39
2019-03-29T05:14:21.934Z,8.39
2019-03-29T05:15:26.115Z,8.41
2019-03-29T05:16:30.454Z,8.42
2019-03-29T05:17:34.595Z,8.44
2019-03-29T05:18:38.882Z,8.45
2019-03-29T05:19:44.632Z,8.46
2019-03-29T05:20:47.417Z,8.48
2019-03-29T05:21:51.793Z,8.49
2019-03-29T05:22:55.941Z,8.50
2019-03-29T05:24:00.089Z,8.51
2019-03-29T05:25:04.375Z,8.52
2019-03-29T05:26:08.644Z,8.52
2019-03-29T05:27:12.923Z,8.54
2019-03-29T05:28:17.192Z,8.55
2019-03-29T05:29:21.491Z,8.56
2019-03-29T05:30:25.738Z,8.57
2019-03-29T05:31:29.910Z,8.58
2019-03-29T05:32:34.326Z,8.60
2019-03-29T05:33:38.638Z,8.61
2019-03-29T05:34:42.865Z,8.62
2019-03-29T05:35:47.118Z,8.63
2019-03-29T05:36:51.429Z,8.65
2019-03-29T05:37:55.664Z,8.66
2019-03-29T05:38:59.932Z,8.66
2019-03-29T05:40:04.217Z,8.68
2019-03-29T05:41:08.394Z,8.69
2019-03-29T05:42:12.629Z,8.70
2019-03-29T05:43:16.837Z,8.71
2019-03-29T05:44:21.278Z,8.72
2019-03-29T05:45:25.556Z,8.73
2019-03-29T05:46:29.811Z,8.74
2019-03-29T05:47:33.993Z,8.75
2019-03-29T05:48:38.309Z,8.76
2019-03-29T05:49:42.603Z,8.77
2019-03-29T05:50:46.761Z,8.78
2019-03-29T05:51:51.085Z,8.79
2019-03-29T05:52:55.278Z,8.80
2019-03-29T05:53:59.587Z,8.81
2019-03-29T05:55:03.846Z,8.82
2019-03-29T05:56:08.082Z,8.83
2019-03-29T05:57:12.287Z,8.83
2019-03-29T05:58:16.597Z,8.85
2019-03-29T05:59:20.863Z,8.86
2019-03-29T06:00:25.139Z,8.87
2019-03-29T06:01:29.383Z,8.88
2019-03-29T06:02:33.720Z,8.89
2019-03-29T06:03:37.971Z,8.90
2019-03-29T06:04:42.310Z,8.91
2019-03-29T06:05:46.524Z,8.92
2019-03-29T06:06:50.818Z,8.93
2019-03-29T06:07:55.101Z,8.94
2019-03-29T06:08:59.336Z,8.96
2019-03-29T06:10:03.605Z,8.97
2019-03-29T06:11:07.870Z,8.98
2019-03-29T06:12:12.109Z,9.00
2019-03-29T06:13:16.450Z,9.01
2019-03-29T06:14:20.723Z,9.02
2019-03-29T06:15:24.961Z,9.03
2019-03-29T06:16:38.790Z,9.04
2019-03-29T06:17:33.414Z,9.05
2019-03-29T06:18:37.711Z,9.06
2019-03-29T06:19:42.009Z,9.07
2019-03-29T06:20:46.240Z,9.08
2019-03-29T06:21:50.614Z,9.09
2019-03-29T06:22:54.868Z,9.10
2019-03-29T06:23:59.073Z,9.11
2019-03-29T06:25:03.373Z,9.12
2019-03-29T06:26:07.725Z,9.13
2019-03-29T06:27:11.956Z,9.14
2019-03-29T06:28:16.151Z,9.15
2019-03-29T06:29:20.243Z,9.16
2019-03-29T06:30:24.608Z,9.17
2019-03-29T06:31:28.855Z,9.18
2019-03-29T06:32:33.034Z,9.19
2019-03-29T06:33:37.370Z,9.20
2019-03-29T06:34:41.629Z,9.21
2019-03-29T06:35:45.907Z,9.21
2019-03-29T06:36:50.276Z,9.22
2019-03-29T06:37:54.508Z,9.23
2019-03-29T06:38:58.729Z,9.24
2019-03-29T06:40:03.013Z,9.25
2019-03-29T06:41:07.322Z,9.26
2019-03-29T06:42:11.604Z,9.27
2019-03-29T06:43:15.843Z,9.28
2019-03-29T06:44:20.138Z,9.29
2019-03-29T06:45:24.433Z,9.30
2019-03-29T06:46:28.753Z,9.31
2019-03-29T06:47:33.016Z,9.33
2019-03-29T06:48:37.237Z,9.33
2019-03-29T06:49:41.507Z,9.35
2019-03-29T06:50:45.791Z,9.36
2019-03-29T06:51:50.129Z,9.37
2019-03-29T06:52:54.338Z,9.38
2019-03-29T06:53:58.623Z,9.38
2019-03-29T06:55:02.916Z,9.38
2019-03-29T06:56:07.179Z,9.39
2019-03-29T06:57:11.545Z,9.40
2019-03-29T06:58:15.783Z,9.40
2019-03-29T06:59:20.159Z,9.42
2019-03-29T07:00:24.395Z,9.43
2019-03-29T07:01:28.648Z,9.44
2019-03-29T07:02:33.046Z,9.45
2019-03-29T07:03:37.340Z,9.47
2019-03-29T07:04:41.615Z,9.48
2019-03-29T07:05:45.967Z,9.50
2019-03-29T07:06:50.246Z,9.51
2019-03-29T07:07:54.541Z,9.53
2019-03-29T07:08:58.798Z,9.54
2019-03-29T07:10:03.116Z,9.56
2019-03-29T07:11:17.437Z,9.57
2019-03-29T07:12:11.817Z,9.59
2019-03-29T07:13:16.053Z,9.60
2019-03-29T07:14:20.406Z,9.62
2019-03-29T07:15:24.518Z,9.63
2019-03-29T07:16:28.845Z,9.65
2019-03-29T07:17:33.019Z,9.66
2019-03-29T07:18:37.357Z,9.68
2019-03-29T07:19:41.721Z,9.69
2019-03-29T07:20:45.962Z,9.71
2019-03-29T07:21:50.276Z,9.72
2019-03-29T07:22:54.607Z,9.73
2019-03-29T07:23:58.924Z,9.74
2019-03-29T07:25:03.231Z,9.75
2019-03-29T07:26:07.411Z,9.76
2019-03-29T07:27:11.730Z,9.77
2019-03-29T07:28:15.920Z,9.77
2019-03-29T07:29:20.287Z,9.77
2019-03-29T07:30:24.581Z,9.77
2019-03-29T07:31:28.897Z,9.78
2019-03-29T07:32:33.185Z,9.79
2019-03-29T07:33:37.442Z,9.80
2019-03-29T07:34:41.753Z,9.81
2019-03-29T07:35:45.853Z,9.83
2019-03-29T07:36:50.342Z,9.85
2019-03-29T07:37:54.681Z,9.86
2019-03-29T07:38:58.957Z,9.87
2019-03-29T07:40:03.164Z,9.87
2019-03-29T07:41:07.575Z,9.89
2019-03-29T07:42:11.912Z,9.91
2019-03-29T07:43:16.052Z,9.92
2019-03-29T07:44:20.498Z,9.94
2019-03-29T07:45:24.761Z,9.96
2019-03-29T07:46:29.066Z,9.97
2019-03-29T07:47:33.248Z,9.99
2019-03-29T07:48:40.334Z,10.00
2019-03-29T07:49:41.868Z,10.01
2019-03-29T07:50:46.175Z,10.02
2019-03-29T07:51:50.487Z,10.04
2019-03-29T07:52:54.785Z,10.05
2019-03-29T07:53:59.075Z,10.07
2019-03-29T07:55:03.340Z,10.08
2019-03-29T07:56:07.597Z,10.10
2019-03-29T07:57:11.896Z,10.12
2019-03-29T07:58:16.199Z,10.14
2019-03-29T07:59:20.521Z,10.15
2019-03-29T08:00:24.860Z,10.16
2019-03-29T08:01:32.356Z,10.17
2019-03-29T08:02:35.028Z,10.18
2019-03-29T08:03:37.744Z,10.20
2019-03-29T08:04:42.016Z,10.22
2019-03-29T08:05:46.292Z,10.25
2019-03-29T08:06:50.555Z,10.27
2019-03-29T08:07:54.857Z,10.29
2019-03-29T08:08:59.079Z,10.31
2019-03-29T08:10:04.211Z,10.34
2019-03-29T08:11:10.694Z,10.37
2019-03-29T08:12:14.091Z,10.40
2019-03-29T08:13:18.350Z,10.42
2019-03-29T08:14:22.604Z,10.45
2019-03-29T08:15:27.036Z,10.47
2019-03-29T08:16:31.258Z,10.49
2019-03-29T08:17:35.609Z,10.52
2019-03-29T08:18:39.780Z,10.55
2019-03-29T08:19:44.026Z,10.57
2019-03-29T08:20:48.491Z,10.59
2019-03-29T08:21:52.748Z,10.62
2019-03-29T08:22:57.020Z,10.64
2019-03-29T08:24:01.414Z,10.66
2019-03-29T08:25:05.695Z,10.67
2019-03-29T08:26:10.075Z,10.68
2019-03-29T08:27:14.336Z,10.69
2019-03-29T08:28:18.655Z,10.71
2019-03-29T08:29:22.865Z,10.72
2019-03-29T08:30:27.251Z,10.74
2019-03-29T08:31:31.625Z,10.76
2019-03-29T08:32:35.966Z,10.79
2019-03-29T08:33:40.232Z,10.80
2019-03-29T08:34:44.564Z,10.82
2019-03-29T08:35:48.846Z,10.83
2019-03-29T08:36:53.123Z,10.85
2019-03-29T08:37:57.507Z,10.87
2019-03-29T08:39:01.865Z,10.89
2019-03-29T08:40:06.138Z,10.91
2019-03-29T08:41:10.484Z,10.92
2019-03-29T08:42:14.674Z,10.93
2019-03-29T08:43:19.135Z,10.94
2019-03-29T08:44:23.396Z,10.96
2019-03-29T08:45:27.714Z,10.98
2019-03-29T08:46:32.110Z,10.99
2019-03-29T08:47:36.460Z,11.00
2019-03-29T08:48:40.732Z,11.01
2019-03-29T08:49:45.113Z,11.02
2019-03-29T08:50:49.397Z,11.04
2019-03-29T08:51:53.671Z,11.05
2019-03-29T08:52:58.074Z,11.07
2019-03-29T08:54:02.334Z,11.09
2019-03-29T08:55:06.552Z,11.10
2019-03-29T08:56:10.817Z,11.11
2019-03-29T08:57:15.181Z,11.13
2019-03-29T08:58:19.573Z,11.14
2019-03-29T08:59:23.869Z,11.15
2019-03-29T09:00:28.192Z,11.17
2019-03-29T09:01:32.413Z,11.17
2019-03-29T09:02:36.789Z,11.18
2019-03-29T09:03:40.993Z,11.19
2019-03-29T09:04:45.348Z,11.20
2019-03-29T09:05:49.720Z,11.20
2019-03-29T09:06:54.381Z,11.21
2019-03-29T09:07:58.299Z,11.22
2019-03-29T09:09:02.650Z,11.23
2019-03-29T09:10:06.930Z,11.24
2019-03-29T09:11:11.238Z,11.23
2019-03-29T09:12:15.529Z,11.24
2019-03-29T09:13:19.859Z,11.25
2019-03-29T09:14:24.088Z,11.27
2019-03-29T09:15:28.344Z,11.28
2019-03-29T09:16:32.647Z,11.30
2019-03-29T09:17:37.034Z,11.31
2019-03-29T09:18:41.325Z,11.32
2019-03-29T09:19:45.679Z,11.33
2019-03-29T09:20:50.003Z,11.33
2019-03-29T09:21:54.313Z,11.34
2019-03-29T09:22:58.687Z,11.34
2019-03-29T09:24:02.960Z,11.35
2019-03-29T09:25:07.278Z,11.36
2019-03-29T09:26:11.419Z,11.38
2019-03-29T09:27:15.888Z,11.39
2019-03-29T09:28:20.044Z,11.40
2019-03-29T09:29:24.411Z,11.42
2019-03-29T09:30:28.715Z,11.43
2019-03-29T09:31:33.066Z,11.45
2019-03-29T09:32:37.386Z,11.46
2019-03-29T09:33:41.660Z,11.47
2019-03-29T09:34:45.966Z,11.47
2019-03-29T09:35:50.329Z,11.47
2019-03-29T09:36:54.642Z,11.48
2019-03-29T09:37:58.820Z,11.49
2019-03-29T09:39:03.182Z,11.49
2019-03-29T09:40:07.460Z,11.52
2019-03-29T09:41:11.783Z,11.53
2019-03-29T09:42:28.291Z,11.55
2019-03-29T09:43:20.223Z,11.56
2019-03-29T09:44:24.622Z,11.58
2019-03-29T09:45:28.932Z,11.59
2019-03-29T09:46:33.103Z,11.60
2019-03-29T09:47:40.584Z,11.61
2019-03-29T09:48:41.526Z,11.63
2019-03-29T09:49:45.834Z,11.64
2019-03-29T09:50:50.928Z,11.65
2019-03-29T09:51:54.376Z,11.67
2019-03-29T09:53:01.284Z,11.68
2019-03-29T09:54:03.145Z,11.69
2019-03-29T09:55:07.395Z,11.70
2019-03-29T09:56:11.723Z,11.71
2019-03-29T09:57:16.066Z,11.71
2019-03-29T09:58:20.388Z,11.72
2019-03-29T09:59:24.711Z,11.72
2019-03-29T10:00:29.057Z,11.72
2019-03-29T10:01:33.380Z,11.72
2019-03-29T10:02:37.634Z,11.73
2019-03-29T10:03:41.937Z,11.73
2019-03-29T10:04:46.248Z,11.75
2019-03-29T10:05:50.457Z,11.78
2019-03-29T10:06:54.916Z,11.83
2019-03-29T10:07:59.224Z,11.89
2019-03-29T10:09:03.549Z,11.95
2019-03-29T10:10:07.887Z,12.02
2019-03-29T10:11:12.275Z,12.08
2019-03-29T10:12:16.469Z,12.17
2019-03-29T10:13:20.820Z,12.25
2019-03-29T10:14:25.031Z,12.33
2019-03-29T10:15:29.270Z,12.41
2019-03-29T10:16:33.667Z,12.50
2019-03-29T10:17:37.803Z,12.59
2019-03-29T10:18:42.144Z,12.67
2019-03-29T10:19:49.695Z,12.77
2019-03-29T10:20:50.739Z,12.87
2019-03-29T10:21:55.134Z,12.93
2019-03-29T10:22:59.464Z,13.01
2019-03-29T10:24:03.798Z,13.08
2019-03-29T10:25:19.017Z,13.16
2019-03-29T10:26:12.489Z,13.22
2019-03-29T10:27:19.031Z,13.26
2019-03-29T10:28:21.138Z,13.28
2019-03-29T10:29:25.451Z,13.22
2019-03-29T10:30:29.764Z,13.19
2019-03-29T10:31:34.139Z,13.18
2019-03-29T10:32:38.424Z,13.17
2019-03-29T10:33:42.756Z,13.15
2019-03-29T10:34:47.158Z,13.15
2019-03-29T10:35:52.965Z,13.15
2019-03-29T10:36:55.859Z,13.15
2019-03-29T10:38:00.162Z,13.13
2019-03-29T10:39:04.582Z,13.14
2019-03-29T10:40:08.883Z,13.13
2019-03-29T10:41:13.309Z,13.13
2019-03-29T10:42:17.667Z,13.12
2019-03-29T10:43:21.936Z,13.11
2019-03-29T10:44:26.279Z,13.09
2019-03-29T10:45:30.691Z,13.07
2019-03-29T10:46:34.951Z,13.05
2019-03-29T10:47:43.711Z,13.02
2019-03-29T10:48:43.718Z,13.00
2019-03-29T10:49:48.048Z,12.97
2019-03-29T10:50:52.351Z,12.97
2019-03-29T10:51:56.712Z,12.97
2019-03-29T10:53:01.046Z,12.96
2019-03-29T10:54:05.361Z,12.95
2019-03-29T10:55:09.683Z,12.95
2019-03-29T10:56:14.113Z,12.95
2019-03-29T10:57:18.462Z,12.95
2019-03-29T10:58:22.734Z,12.96
2019-03-29T10:59:28.084Z,12.96
2019-03-29T11:00:31.459Z,12.98
2019-03-29T11:01:35.781Z,12.99
2019-03-29T11:02:40.107Z,13.01
2019-03-29T11:03:44.399Z,13.03
2019-03-29T11:04:48.729Z,13.01
2019-03-29T11:05:53.012Z,13.02
2019-03-29T11:06:57.357Z,13.01
2019-03-29T11:08:01.590Z,13.00
2019-03-29T11:09:06.019Z,13.01
2019-03-29T11:10:10.331Z,13.01
2019-03-29T11:11:14.602Z,12.98
2019-03-29T11:12:18.768Z,12.97
2019-03-29T11:13:23.244Z,12.98
2019-03-29T11:14:27.598Z,12.99
2019-03-29T11:15:31.913Z,12.98
2019-03-29T11:16:36.324Z,12.98
2019-03-29T11:17:40.637Z,12.97
2019-03-29T11:18:45.888Z,12.96
2019-03-29T11:19:49.309Z,12.95
2019-03-29T11:20:53.482Z,12.96
2019-03-29T11:21:57.881Z,12.97
2019-03-29T11:23:02.279Z,12.98
2019-03-29T11:24:09.208Z,12.97
2019-03-29T11:25:10.897Z,12.98
2019-03-29T11:26:15.108Z,13.01
2019-03-29T11:27:22.325Z,13.03
2019-03-29T11:28:23.857Z,13.07
2019-03-29T11:29:28.158Z,13.09
2019-03-29T11:30:42.102Z,13.11
2019-03-29T11:31:36.841Z,13.12
2019-03-29T11:32:41.169Z,13.12
2019-03-29T11:33:45.407Z,13.15
2019-03-29T11:34:49.784Z,13.19
2019-03-29T11:35:54.023Z,13.22
2019-03-29T11:36:58.476Z,13.27
2019-03-29T11:38:02.675Z,13.30
2019-03-29T11:39:07.162Z,13.35
2019-03-29T11:40:11.439Z,13.36
2019-03-29T11:41:15.797Z,13.40
2019-03-29T11:42:20.190Z,13.41
2019-03-29T11:43:27.076Z,13.45
2019-03-29T11:44:30.413Z,13.47
2019-03-29T11:45:33.074Z,13.50
2019-03-29T11:46:37.435Z,13.53
2019-03-29T11:47:41.782Z,13.54
2019-03-29T11:48:46.115Z,13.56
2019-03-29T11:49:52.916Z,13.57
2019-03-29T11:50:54.709Z,13.56
2019-03-29T11:51:58.976Z,13.56
2019-03-29T11:53:03.373Z,13.57
2019-03-29T11:54:07.717Z,13.55
2019-03-29T11:55:11.987Z,13.55
2019-03-29T11:56:16.313Z,13.54
2019-03-29T11:57:20.666Z,13.53
2019-03-29T11:58:25.008Z,13.55
2019-03-29T11:59:29.281Z,13.57
2019-03-29T12:00:33.636Z,13.58
2019-03-29T12:01:38.018Z,13.59
2019-03-29T12:02:42.325Z,13.59
2019-03-29T12:03:46.677Z,13.60
2019-03-29T12:04:51.020Z,13.62
2019-03-29T12:05:55.348Z,13.64
2019-03-29T12:07:03.306Z,13.66
2019-03-29T12:08:04.020Z,13.70
2019-03-29T12:09:08.393Z,13.73
2019-03-29T12:10:12.726Z,13.75
2019-03-29T12:11:16.956Z,13.77
2019-03-29T12:12:21.368Z,13.80
2019-03-29T12:13:40.000Z,13.80
2019-03-29T12:14:30.016Z,13.82
2019-03-29T12:15:34.269Z,13.83
2019-03-29T12:16:38.669Z,13.84
2019-03-29T12:17:43.028Z,13.85
2019-03-29T12:18:47.446Z,13.85
2019-03-29T12:19:51.792Z,13.85
2019-03-29T12:20:56.004Z,13.84
2019-03-29T12:22:00.400Z,13.84
2019-03-29T12:23:04.749Z,13.83
2019-03-29T12:24:09.096Z,13.84
2019-03-29T12:25:13.331Z,13.83
2019-03-29T12:26:17.709Z,13.82
2019-03-29T12:27:22.097Z,13.81
2019-03-29T12:28:26.353Z,13.78
2019-03-29T12:29:30.740Z,13.76
2019-03-29T12:30:35.068Z,13.72
2019-03-29T12:31:39.432Z,13.71
2019-03-29T12:32:46.668Z,13.71
2019-03-29T12:33:50.109Z,13.71
2019-03-29T12:34:54.426Z,13.73
2019-03-29T12:35:58.729Z,13.74
2019-03-29T12:37:02.970Z,13.75
2019-03-29T12:38:07.417Z,13.75
2019-03-29T12:39:11.571Z,13.75
2019-03-29T12:40:15.885Z,13.76
2019-03-29T12:41:20.173Z,13.77
2019-03-29T12:42:24.377Z,13.80
2019-03-29T12:43:28.727Z,13.83
2019-03-29T12:44:33.038Z,13.85
2019-03-29T12:45:37.364Z,13.88
2019-03-29T12:46:41.592Z,13.90
2019-03-29T12:47:45.907Z,13.92
2019-03-29T12:48:50.630Z,13.93
2019-03-29T12:49:54.524Z,13.92
2019-03-29T12:50:58.822Z,13.93
2019-03-29T12:52:03.150Z,13.94
2019-03-29T12:53:07.452Z,13.95
2019-03-29T12:54:12.267Z,13.94
2019-03-29T12:55:16.018Z,13.95
2019-03-29T12:56:20.342Z,13.95
2019-03-29T12:57:24.672Z,13.96
2019-03-29T12:58:28.907Z,13.97
2019-03-29T12:59:33.233Z,13.97
2019-03-29T13:00:37.504Z,14.01
2019-03-29T13:01:41.798Z,14.06
2019-03-29T13:02:46.163Z,14.11
2019-03-29T13:03:50.431Z,14.16
2019-03-29T13:04:54.722Z,14.19
2019-03-29T13:05:58.974Z,14.19
2019-03-29T13:07:03.251Z,14.20
2019-03-29T13:08:07.621Z,14.22
2019-03-29T13:09:11.933Z,14.24
2019-03-29T13:10:16.251Z,14.23
2019-03-29T13:11:20.458Z,14.26
2019-03-29T13:12:24.775Z,14.28
2019-03-29T13:13:29.049Z,14.31
2019-03-29T13:14:33.343Z,14.35
2019-03-29T13:15:37.679Z,14.40
2019-03-29T13:16:41.961Z,14.45
2019-03-29T13:17:46.239Z,14.54
2019-03-29T13:18:53.621Z,14.61
2019-03-29T13:19:54.850Z,14.65
2019-03-29T13:20:59.135Z,14.63
2019-03-29T13:22:03.434Z,14.64
2019-03-29T13:23:07.742Z,14.64
2019-03-29T13:24:12.129Z,14.69
2019-03-29T13:25:16.402Z,14.80
2019-03-29T13:26:20.792Z,14.95
2019-03-29T13:27:25.124Z,15.12
2019-03-29T13:28:29.495Z,15.28
2019-03-29T13:29:33.754Z,15.45
2019-03-29T13:30:38.139Z,15.57
2019-03-29T13:31:42.527Z,15.65
2019-03-29T13:32:46.819Z,15.72
2019-03-29T13:33:51.100Z,15.74
2019-03-29T13:34:55.412Z,15.74
2019-03-29T13:35:59.760Z,15.70
2019-03-29T13:37:04.020Z,15.67
2019-03-29T13:38:08.336Z,15.68
2019-03-29T13:39:12.662Z,15.76
2019-03-29T13:40:16.987Z,15.81
2019-03-29T13:41:21.318Z,15.84
2019-03-29T13:42:25.632Z,15.89
2019-03-29T13:43:29.992Z,15.92
2019-03-29T13:44:34.333Z,15.96
2019-03-29T13:45:38.623Z,15.93
2019-03-29T13:46:42.906Z,15.99
2019-03-29T13:47:47.246Z,16.04
2019-03-29T13:48:51.541Z,16.09
2019-03-29T13:49:55.867Z,16.12
2019-03-29T13:51:00.279Z,16.12
2019-03-29T13:52:04.531Z,16.13
2019-03-29T13:53:08.965Z,16.12
2019-03-29T13:54:13.286Z,16.12
2019-03-29T13:55:17.655Z,16.11
2019-03-29T13:56:21.972Z,16.09
2019-03-29T13:57:26.387Z,16.07
2019-03-29T13:58:30.753Z,16.05
2019-03-29T13:59:35.118Z,16.00
2019-03-29T14:00:39.422Z,15.96
2019-03-29T14:01:43.723Z,15.91
2019-03-29T14:02:48.032Z,15.85